Time;durP1;ratioP1;P1;durP2;ratioP2;P2;SDS_P1;SDS_P2;PMS_P1;PMS_P2;Temp;Humidity;BMP_temperature;BMP_pressure;BME280_temperature;BME280_humidity;BME280_pressure;Samples;Min_cycle;Max_cycle;Signal;HPM_P1;HPM_P2
2022/03/16 08:50:16;;;;;;;7.60;4.13;;;;;;;18.11;56.52;99574.16;5883285;23;21549;-91
2022/03/16 08:52:52;;;;;;;7.45;3.75;;;;;;;18.11;56.53;99568.88;4963881;29;20031;-94
2022/03/16 08:55:30;;;;;;;;;;;;;;;18.13;56.15;99556.47;4980602;29;20023;-94
2022/03/16 09:39:53;;;;;;;9.90;4.00;;;;;;;18.25;56.15;99547.97;5341547;23;20054;-92
2022/03/16 09:42:20;;;;;;;8.38;3.67;;;;;;;18.23;56.40;99536.63;4967492;28;20038;-93
2022/03/16 09:47:22;;;;;;;7.28;3.88;;;;;;;18.27;56.21;99552.31;5446271;23;20050;-94
2022/03/16 09:59:06;;;;;;;8.45;3.65;;;;;;;18.30;56.15;99536.31;1550908;23;20252;-90
2022/03/16 10:02:04;;;;;;;9.23;4.07;;;;;;;18.30;55.79;99536.31;5256143;23;20050;-92
2022/03/16 10:17:45;;;;;;;7.47;3.80;;;;;;;18.31;55.82;99540.66;4977277;28;20047;-92
2022/03/16 10:20:50;;;;;;;;;;;;;;;18.33;55.77;99537.03;4965627;28;20049;-93
2022/03/16 10:23:21;;;;;;;9.50;4.47;;;;;;;18.34;55.59;99543.16;4933681;29;20276;-92
2022/03/16 10:25:51;;;;;;;9.13;3.95;;;;;;;18.34;55.87;99540.50;4950813;28;20031;-90
2022/03/16 10:28:19;;;;;;;9.77;4.00;;;;;;;18.34;55.68;99541.38;4960584;28;20061;-91
2022/03/16 10:31:03;;;;;;;10.25;3.90;;;;;;;18.36;55.62;99546.59;4976477;28;20046;-89
2022/03/16 10:33:32;;;;;;;8.88;3.65;;;;;;;18.36;55.29;99542.16;4973683;28;20457;-87
2022/03/16 10:36:05;;;;;;;6.85;3.00;;;;;;;18.39;55.51;99546.44;4943366;28;20041;-88
2022/03/16 10:38:43;;;;;;;10.25;3.95;;;;;;;18.40;55.36;99537.56;4946980;28;20034;-87
2022/03/16 10:46:51;;;;;;;8.23;3.55;;;;;;;18.43;55.21;99550.63;4957047;29;20038;-89
2022/03/16 10:49:19;;;;;;;8.35;4.00;;;;;;;18.43;55.10;99548.00;4955724;29;20023;-89
2022/03/16 10:51:45;;;;;;;9.82;3.85;;;;;;;18.44;55.26;99552.34;4958319;28;20117;-88
2022/03/16 10:54:14;;;;;;;7.65;3.35;;;;;;;18.45;55.17;99561.97;4958530;28;20073;-88
2022/03/16 10:56:41;;;;;;;7.80;3.42;;;;;;;18.45;55.12;99556.69;4958678;28;20022;-87
2022/03/16 10:59:08;;;;;;;8.95;3.50;;;;;;;18.46;55.22;99552.28;4957530;28;20371;-88
2022/03/16 11:01:38;;;;;;;9.23;3.67;;;;;;;18.48;55.15;99566.25;4957457;28;20027;-87
2022/03/16 11:04:04;;;;;;;10.30;3.63;;;;;;;18.47;55.33;99559.28;4955401;28;20026;-87
2022/03/16 11:06:31;;;;;;;8.05;3.30;;;;;;;18.48;55.31;99564.47;4908848;28;1463037;-87
2022/03/16 11:08:59;;;;;;;9.70;3.65;;;;;;;18.49;54.94;99560.91;4965293;28;20070;-92
2022/03/16 11:14:11;;;;;;;9.18;3.70;;;;;;;18.51;54.86;99566.97;4962288;28;20042;-89
2022/03/16 11:16:37;;;;;;;7.45;3.42;;;;;;;18.51;55.12;99564.31;4960715;28;20022;-88
2022/03/16 11:19:08;;;;;;;8.02;3.60;;;;;;;18.52;54.86;99563.41;4942535;28;20035;-86
2022/03/16 11:21:48;;;;;;;8.00;3.40;;;;;;;18.56;54.90;99555.31;4956243;28;20023;-88
2022/03/16 11:24:18;;;;;;;7.95;2.97;;;;;;;18.54;54.81;99557.19;4945950;28;20407;-88
2022/03/16 11:27:24;;;;;;;7.05;3.17;;;;;;;18.56;54.87;99550.03;4960094;28;20436;-88
2022/03/16 11:30:00;;;;;;;8.00;3.53;;;;;;;18.58;55.15;99564.00;4932041;28;20042;-86
2022/03/16 11:32:34;;;;;;;7.00;2.88;;;;;;;18.58;54.96;99558.72;4963665;28;20034;-86
2022/03/16 11:35:00;;;;;;;7.35;3.38;;;;;;;18.59;55.02;99541.97;4962657;28;20026;-86
2022/03/16 11:37:45;;;;;;;7.95;3.72;;;;;;;18.59;54.73;99541.97;4968982;28;20057;-92
2022/03/16 11:40:20;;;;;;;8.45;3.58;;;;;;;18.60;54.53;99548.97;4993612;28;20010;-93
2022/03/16 11:43:11;;;;;;;7.85;3.22;;;;;;;18.61;54.83;99540.09;4982310;28;20039;-92
2022/03/16 11:45:50;;;;;;;5.38;3.20;;;;;;;18.61;54.79;99545.38;4983762;28;20102;-93
2022/03/16 11:48:31;;;;;;;8.70;3.30;;;;;;;18.62;54.79;99552.38;4983594;28;20030;-93
2022/03/16 11:51:15;;;;;;;7.90;3.58;;;;;;;18.63;54.75;99559.38;5000685;28;20054;-92
2022/03/16 11:53:47;;;;;;;5.90;2.95;;;;;;;18.63;54.75;99547.00;4963731;28;20073;-86
2022/03/16 11:56:26;;;;;;;9.30;2.97;;;;;;;18.64;54.65;99555.78;4965570;28;20034;-86
2022/03/16 11:59:09;;;;;;;7.80;3.28;;;;;;;18.64;54.78;99567.22;4966193;28;20022;-87
2022/03/16 12:01:37;;;;;;;6.10;3.05;;;;;;;18.64;54.89;99577.78;4967269;28;20130;-88
2022/03/16 12:04:12;;;;;;;6.55;2.72;;;;;;;18.65;54.75;99561.00;4981370;28;20057;-86
2022/03/16 12:07:01;;;;;;;8.23;2.95;;;;;;;18.64;54.95;99561.06;4968362;28;20029;-88
2022/03/16 12:09:31;;;;;;;7.70;3.03;;;;;;;18.65;54.62;99562.81;4967958;28;20026;-89
2022/03/16 12:15:20;;;;;;;7.78;2.80;;;;;;;18.68;54.71;99552.06;4982414;28;20092;-89
2022/03/16 12:17:51;;;;;;;6.40;3.00;;;;;;;18.68;54.61;99562.63;4950876;28;20027;-89
2022/03/16 12:20:23;;;;;;;6.35;2.83;;;;;;;18.68;54.66;99560.00;4968591;28;20050;-90
2022/03/16 12:22:52;;;;;;;5.25;2.80;;;;;;;18.70;54.85;99566.03;4964761;28;20187;-90
2022/03/16 12:25:27;;;;;;;6.88;3.03;;;;;;;18.71;54.51;99562.50;4963882;28;20031;-90
2022/03/16 12:31:07;;;;;;;5.85;2.78;;;;;;;18.74;54.77;99550.91;4981257;28;20185;-89
2022/03/16 12:33:39;;;;;;;6.82;3.10;;;;;;;18.74;54.56;99553.56;4952039;28;20027;-89
2022/03/16 12:36:11;;;;;;;7.43;3.08;;;;;;;18.74;54.52;99557.03;4948732;28;20018;-89
2022/03/16 12:38:47;;;;;;;5.03;2.80;;;;;;;18.75;54.66;99558.75;4965442;28;20033;-89
2022/03/16 12:44:01;;;;;;;6.00;3.13;;;;;;;18.76;54.68;99556.97;4982551;28;20045;-89
2022/03/16 12:46:36;;;;;;;5.20;2.70;;;;;;;18.77;54.48;99554.25;4966340;28;20033;-89
2022/03/16 12:49:12;;;;;;;7.63;3.13;;;;;;;18.78;54.53;99558.59;4967346;28;20022;-89
2022/03/16 12:51:39;;;;;;;6.22;2.60;;;;;;;18.78;54.51;99553.31;4964958;28;20452;-90
2022/03/16 12:54:06;;;;;;;6.07;2.70;;;;;;;18.79;54.80;99547.09;4966217;28;20023;-90
2022/03/16 12:56:38;;;;;;;6.68;2.67;;;;;;;18.82;54.72;99558.44;4967309;28;20094;-90
2022/03/16 12:59:04;;;;;;;6.10;3.00;;;;;;;18.83;54.65;99557.53;4969078;28;20034;-89
2022/03/16 13:01:30;;;;;;;4.60;2.50;;;;;;;18.83;54.43;99563.66;4970010;28;20047;-89
2022/03/16 13:04:07;;;;;;;7.15;3.15;;;;;;;18.84;54.54;99551.31;4967757;28;20050;-89
2022/03/16 13:06:34;;;;;;;6.57;2.72;;;;;;;18.86;54.61;99566.16;4983608;28;20023;-90
2022/03/16 13:09:08;;;;;;;6.00;2.80;;;;;;;18.86;54.32;99554.72;4983151;28;20031;-87
2022/03/16 13:11:35;;;;;;;5.00;2.40;;;;;;;18.85;54.44;99548.59;4980322;28;20031;-91
2022/03/16 13:14:10;;;;;;;5.80;3.00;;;;;;;18.88;54.19;99558.13;4983306;28;20035;-88
2022/03/16 13:16:48;;;;;;;6.05;2.50;;;;;;;18.87;54.50;99552.00;4968914;28;20035;-87
2022/03/16 13:19:27;;;;;;;5.63;3.03;;;;;;;18.90;54.69;99535.13;4967318;28;20038;-88
2022/03/16 13:22:18;;;;;;;6.15;2.58;;;;;;;18.89;54.51;99534.25;4983004;28;20059;-88
2022/03/16 13:24:48;;;;;;;5.13;2.38;;;;;;;18.89;54.45;99517.56;4979199;28;20035;-86
2022/03/16 13:27:25;;;;;;;5.35;2.55;;;;;;;18.90;54.59;99513.97;4966981;28;20023;-87
2022/03/16 13:29:57;;;;;;;6.30;2.78;;;;;;;18.90;54.37;99503.41;4967238;28;20058;-88
2022/03/16 13:32:29;;;;;;;7.07;2.42;;;;;;;18.92;54.37;99506.81;4966246;28;20037;-86
2022/03/16 13:35:07;;;;;;;5.78;2.92;;;;;;;18.93;54.36;99511.16;4965481;28;20192;-87
2022/03/16 13:37:35;;;;;;;4.97;2.70;;;;;;;18.93;54.51;99513.81;4965396;28;20030;-86
2022/03/16 13:40:11;;;;;;;7.65;2.70;;;;;;;18.94;54.56;99509.38;4944750;29;20023;-87
2022/03/16 13:42:41;;;;;;;6.35;2.53;;;;;;;18.95;54.33;99500.50;4962567;28;20066;-87
2022/03/16 13:45:20;;;;;;;5.88;2.53;;;;;;;18.95;54.41;99501.38;4965610;28;20034;-86
2022/03/16 13:48:08;;;;;;;6.85;2.80;;;;;;;18.95;54.26;99513.72;4965801;28;20035;-87
2022/03/16 13:50:34;;;;;;;6.40;2.80;;;;;;;18.96;54.59;99518.06;4965056;28;20085;-84
2022/03/16 13:53:21;;;;;;;5.85;2.60;;;;;;;18.96;54.16;99521.59;4963959;28;20034;-88
2022/03/16 13:55:53;;;;;;;6.10;2.83;;;;;;;18.97;54.36;99527.72;4968030;28;20031;-86
2022/03/16 13:58:25;;;;;;;4.75;2.60;;;;;;;18.97;54.53;99506.56;4969322;28;20030;-86
2022/03/16 14:00:59;;;;;;;6.22;2.97;;;;;;;18.97;54.36;99515.38;4985291;28;20479;-87
2022/03/16 14:03:27;;;;;;;6.82;2.80;;;;;;;18.97;54.46;99515.38;4968671;28;20019;-89
2022/03/16 14:05:54;;;;;;;6.82;2.85;;;;;;;18.99;54.21;99504.72;4967646;28;20042;-89
2022/03/16 14:08:20;;;;;;;5.55;2.80;;;;;;;18.98;54.31;99506.50;4984307;28;20046;-90
2022/03/16 14:10:51;;;;;;;5.38;2.58;;;;;;;19.00;54.20;99509.06;4968090;28;20030;-89
2022/03/16 14:13:17;;;;;;;5.47;2.78;;;;;;;18.99;54.42;99512.66;4983759;28;20038;-90
2022/03/16 14:15:46;;;;;;;7.65;2.83;;;;;;;18.98;54.51;99511.78;4969559;28;20031;-89
2022/03/16 14:18:17;;;;;;;7.72;2.85;;;;;;;18.98;54.46;99495.91;4968442;28;20435;-90
2022/03/16 14:20:44;;;;;;;6.07;2.90;;;;;;;18.99;54.44;99508.19;4973082;28;20034;-88
2022/03/16 14:23:10;;;;;;;7.32;3.25;;;;;;;18.97;54.23;99504.78;4971236;28;20040;-89
2022/03/16 14:25:47;;;;;;;7.38;2.78;;;;;;;18.99;54.23;99502.91;4993107;28;20042;-91
2022/03/16 14:28:13;;;;;;;9.30;3.08;;;;;;;19.00;54.49;99520.50;4977643;28;20033;-92
2022/03/16 14:31:00;;;;;;;5.82;2.60;;;;;;;18.99;54.15;99524.06;4993527;28;20031;-92
2022/03/16 14:33:30;;;;;;;7.57;3.25;;;;;;;18.99;54.25;99529.34;4975780;28;20039;-92
2022/03/16 14:35:59;;;;;;;6.75;2.95;;;;;;;18.97;54.49;99520.66;4993952;28;20033;-88
2022/03/16 14:38:26;;;;;;;7.65;2.83;;;;;;;18.98;54.49;99525.00;4970187;28;20030;-91
2022/03/16 14:40:55;;;;;;;10.02;3.17;;;;;;;18.98;54.49;99537.38;4973245;28;20050;-90
2022/03/16 14:43:27;;;;;;;7.85;2.80;;;;;;;18.98;54.64;99532.94;4975763;28;20039;-91
2022/03/16 14:45:54;;;;;;;8.35;2.85;;;;;;;18.99;54.55;99537.28;4975022;28;20066;-93
2022/03/16 14:48:36;;;;;;;7.70;3.10;;;;;;;18.99;54.56;99534.63;4977650;28;20030;-92
2022/03/16 14:51:03;;;;;;;7.88;3.25;;;;;;;19.00;54.42;99535.50;4989214;28;20033;-92
2022/03/16 14:53:29;;;;;;;6.68;3.28;;;;;;;19.02;54.25;99538.91;4994285;28;20026;-92
2022/03/16 14:56:13;;;;;;;8.93;2.90;;;;;;;18.97;54.67;99540.94;4977335;28;20031;-91
2022/03/16 14:58:39;;;;;;;7.25;3.10;;;;;;;18.97;54.60;99557.66;4974268;28;20030;-92
2022/03/16 15:01:54;;;;;;;6.88;2.90;;;;;;;18.99;54.25;99549.66;4976234;28;20045;-91
2022/03/16 15:04:23;;;;;;;9.48;3.58;;;;;;;19.00;54.49;99535.50;4995709;28;20031;-93
2022/03/16 15:06:52;;;;;;;6.80;2.92;;;;;;;18.99;54.64;99536.44;4999660;28;20039;-92
2022/03/16 15:09:25;;;;;;;7.88;2.95;;;;;;;18.97;54.58;99536.53;5022924;23;20034;-94
2022/03/16 15:12:04;;;;;;;6.70;2.70;;;;;;;18.97;54.39;99539.16;4980756;28;20041;-91
2022/03/16 15:14:32;;;;;;;6.38;2.97;;;;;;;18.98;54.31;99538.22;4982912;28;20031;-91
2022/03/16 15:16:58;;;;;;;6.30;2.92;;;;;;;18.98;54.69;99548.81;4974859;28;20054;-91
2022/03/16 15:19:30;;;;;;;6.15;2.83;;;;;;;18.98;54.50;99559.38;4957257;29;20027;-92
2022/03/16 15:21:58;;;;;;;6.35;2.70;;;;;;;18.98;54.69;99540.88;4973351;28;20039;-92
2022/03/16 15:24:27;;;;;;;8.40;3.00;;;;;;;18.99;54.38;99539.09;4975127;29;20046;-92
2022/03/16 15:26:53;;;;;;;8.93;3.22;;;;;;;19.01;54.36;99550.44;4958242;29;20035;-91
2022/03/16 15:29:20;;;;;;;6.32;3.00;;;;;;;19.01;54.33;99546.00;4960318;28;20046;-93
2022/03/16 15:31:46;;;;;;;9.20;3.42;;;;;;;19.01;54.21;99550.44;4967743;29;20409;-93
2022/03/16 15:34:39;;;;;;;7.60;3.35;;;;;;;19.01;54.34;99553.06;4977151;28;20123;-92
2022/03/16 15:37:06;;;;;;;5.93;2.60;;;;;;;19.02;54.67;99558.28;4966543;28;20368;-89
2022/03/16 15:39:35;;;;;;;5.53;2.88;;;;;;;19.02;54.64;99555.66;4966458;28;20038;-87
2022/03/16 15:44:46;;;;;;;5.90;3.17;;;;;;;19.04;54.42;99537.94;4970301;29;20046;-86
2022/03/16 15:47:12;;;;;;;7.45;3.10;;;;;;;19.03;54.62;99549.47;4961373;28;20034;-88
2022/03/16 15:49:39;;;;;;;6.22;2.97;;;;;;;19.04;54.27;99548.50;4964279;28;20022;-86
2022/03/16 15:52:05;;;;;;;6.72;2.95;;;;;;;19.04;54.25;99553.81;4952612;29;20032;-87
2022/03/16 15:54:32;;;;;;;7.38;2.80;;;;;;;19.05;54.26;99554.66;4952295;29;20067;-87
2022/03/16 15:56:59;;;;;;;6.93;2.88;;;;;;;19.05;54.47;99554.66;4954978;29;20031;-88
2022/03/16 15:59:25;;;;;;;6.63;3.13;;;;;;;19.07;54.44;99562.53;4943322;29;20028;-87
2022/03/16 16:01:50;;;;;;;7.60;3.45;;;;;;;19.08;54.49;99564.25;4942345;29;20058;-88
2022/03/16 16:04:16;;;;;;;9.55;3.30;;;;;;;19.07;54.38;99557.25;4941662;29;20031;-86
2022/03/16 16:06:46;;;;;;;7.05;3.03;;;;;;;19.08;54.24;99556.31;4961370;29;20016;-87
2022/03/16 16:09:17;;;;;;;9.02;3.35;;;;;;;19.06;54.25;99551.09;4960389;29;20099;-88
2022/03/16 16:11:44;;;;;;;8.38;3.03;;;;;;;19.08;54.28;99559.78;4962032;29;20059;-86
2022/03/16 16:14:10;;;;;;;8.55;3.60;;;;;;;19.07;54.53;99557.25;4941952;29;20113;-86
2022/03/16 16:16:37;;;;;;;7.53;3.15;;;;;;;19.09;54.49;99556.25;4944511;29;20037;-87
2022/03/16 16:19:05;;;;;;;6.43;2.80;;;;;;;19.08;54.54;99549.22;4962384;29;20051;-87
2022/03/16 16:21:33;;;;;;;8.93;3.55;;;;;;;19.08;54.24;99556.31;4945368;29;20036;-89
2022/03/16 16:24:00;;;;;;;8.00;3.60;;;;;;;19.08;54.33;99558.94;4945368;29;20031;-89
2022/03/16 16:26:26;;;;;;;10.38;3.97;;;;;;;19.10;54.48;99565.00;4962295;29;20012;-88
2022/03/16 16:28:53;;;;;;;6.43;3.30;;;;;;;19.10;54.23;99563.22;4945242;29;20036;-87
2022/03/16 16:31:19;;;;;;;6.45;2.90;;;;;;;19.10;54.43;99563.22;4944349;29;20011;-88
2022/03/16 16:33:45;;;;;;;6.45;3.15;;;;;;;19.09;54.56;99553.59;4946035;29;20019;-86
2022/03/16 16:36:14;;;;;;;8.60;3.70;;;;;;;19.11;54.42;99561.41;4944490;29;20032;-87
2022/03/16 16:38:43;;;;;;;9.65;3.20;;;;;;;19.11;54.43;99570.22;4964881;28;20038;-88
2022/03/16 16:41:09;;;;;;;8.02;2.92;;;;;;;19.11;54.36;99570.22;4943713;29;20027;-87
2022/03/16 16:43:35;;;;;;;9.43;3.45;;;;;;;19.11;54.21;99574.66;4931108;29;20027;-87
2022/03/16 16:46:01;;;;;;;7.97;3.25;;;;;;;19.11;54.42;99570.22;4954743;29;20027;-86
2022/03/16 16:48:29;;;;;;;10.98;4.22;;;;;;;19.12;54.43;99582.50;4940679;29;20046;-89
2022/03/16 16:50:59;;;;;;;9.82;3.83;;;;;;;19.12;54.63;99608.13;4963393;29;20086;-89
2022/03/16 16:53:30;;;;;;;8.00;3.55;;;;;;;19.13;54.54;99593.97;4946580;29;20055;-89
2022/03/16 16:55:59;;;;;;;9.23;3.75;;;;;;;19.14;54.41;99593.03;4945190;29;20032;-87
2022/03/16 16:58:26;;;;;;;8.43;3.63;;;;;;;19.13;54.77;99591.31;4939275;29;20031;-88
2022/03/16 17:00:51;;;;;;;8.18;3.50;;;;;;;19.15;54.89;99602.66;4976890;28;20050;-89
2022/03/16 17:03:17;;;;;;;7.90;3.55;;;;;;;19.15;54.75;99597.38;4964218;29;20007;-90
2022/03/16 17:05:45;;;;;;;8.77;3.88;;;;;;;19.15;54.98;99592.94;4960936;28;20468;-90
2022/03/16 17:08:14;;;;;;;7.80;3.90;;;;;;;19.16;54.81;99588.50;4953093;28;20031;-89
2022/03/16 17:10:42;;;;;;;10.02;4.07;;;;;;;19.18;54.84;99591.94;4946893;29;20046;-91
2022/03/16 17:13:09;;;;;;;11.50;3.75;;;;;;;19.20;54.85;99611.22;4954302;28;20034;-90
2022/03/16 17:15:38;;;;;;;10.02;4.47;;;;;;;19.20;54.68;99600.63;4969642;28;20042;-89
2022/03/16 17:18:04;;;;;;;9.48;4.13;;;;;;;19.20;54.83;99603.28;4963011;29;20027;-90
2022/03/16 17:20:33;;;;;;;9.45;3.88;;;;;;;19.21;54.98;99612.94;4963836;28;20042;-88
2022/03/16 17:23:04;;;;;;;8.98;3.97;;;;;;;19.22;54.93;99604.06;4953286;29;20042;-92
2022/03/16 17:25:30;;;;;;;9.88;4.32;;;;;;;19.23;54.95;99611.03;4948739;29;20030;-91
2022/03/16 17:27:56;;;;;;;14.45;5.20;;;;;;;19.22;54.21;99609.34;4949848;29;20028;-90
2022/03/16 17:30:25;;;;;;;13.70;5.00;;;;;;;19.23;54.48;99605.75;4948211;29;20368;-91
2022/03/16 17:32:54;;;;;;;14.52;4.68;;;;;;;19.26;54.77;99605.63;4948130;29;20421;-90
2022/03/16 17:35:25;;;;;;;12.25;4.57;;;;;;;19.27;54.33;99612.59;4940985;29;20043;-88
2022/03/16 17:37:52;;;;;;;14.02;5.30;;;;;;;19.28;54.69;99614.31;4949914;29;20031;-90
2022/03/16 17:40:18;;;;;;;15.15;5.35;;;;;;;19.30;54.81;99622.19;4974797;28;20030;-90
2022/03/16 17:45:37;;;;;;;12.80;4.63;;;;;;;19.32;54.93;99618.53;4976605;28;20103;-88
2022/03/16 17:48:11;;;;;;;13.02;4.43;;;;;;;19.34;54.66;99617.59;4946839;29;20051;-88
2022/03/16 17:50:43;;;;;;;13.48;4.72;;;;;;;19.35;54.92;99627.22;4949244;28;20066;-89
2022/03/16 17:53:20;;;;;;;13.85;4.57;;;;;;;19.34;54.52;99634.31;4957651;28;20061;-89
2022/03/16 17:58:31;;;;;;;14.98;4.90;;;;;;;19.36;54.67;99636.91;4972074;29;20018;-91
2022/03/16 18:00:57;;;;;;;10.48;4.60;;;;;;;19.39;54.68;99640.25;4963748;28;20046;-87
2022/03/16 18:03:24;;;;;;;10.65;4.10;;;;;;;19.39;54.67;99653.47;4983124;28;20035;-88
2022/03/16 18:05:50;;;;;;;16.42;5.45;;;;;;;19.42;54.73;99660.41;4962306;29;20041;-89
2022/03/16 18:08:17;;;;;;;14.07;5.53;;;;;;;19.43;55.03;99659.47;4963022;28;20121;-86
2022/03/16 18:13:29;;;;;;;16.42;5.20;;;;;;;19.44;55.03;99658.53;4968323;28;20067;-87
2022/03/16 18:15:56;;;;;;;12.32;4.53;;;;;;;19.44;55.02;99664.69;4933399;28;20027;-87
2022/03/16 18:18:23;;;;;;;10.50;4.20;;;;;;;19.47;55.13;99658.38;4960977;28;20041;-84
2022/03/16 18:20:54;;;;;;;11.60;5.13;;;;;;;19.47;55.10;99671.63;4959275;28;20022;-85
2022/03/16 18:23:21;;;;;;;13.30;5.25;;;;;;;19.47;55.00;99671.63;4942213;29;20121;-87
2022/03/16 18:25:49;;;;;;;10.48;4.25;;;;;;;19.48;55.26;99669.81;4961754;28;20027;-87
2022/03/16 18:28:19;;;;;;;13.10;4.72;;;;;;;19.50;54.90;99675.84;4935364;29;20034;-88
2022/03/16 18:30:45;;;;;;;12.88;5.20;;;;;;;19.51;55.16;99683.72;4946130;29;20019;-88
2022/03/16 18:33:11;;;;;;;10.80;4.30;;;;;;;19.51;55.31;99683.72;4954750;29;20170;-86
2022/03/16 18:35:37;;;;;;;10.55;4.95;;;;;;;19.52;55.58;99682.78;4949120;28;20073;-87
2022/03/16 18:38:07;;;;;;;10.35;4.60;;;;;;;19.53;55.27;99692.47;4964717;28;20133;-86
2022/03/16 18:40:33;;;;;;;10.48;4.45;;;;;;;19.53;55.44;99700.41;4965126;28;20023;-86
2022/03/16 18:43:00;;;;;;;12.30;4.63;;;;;;;19.54;55.66;99702.13;4935923;29;20055;-87
2022/03/16 18:45:27;;;;;;;8.45;4.10;;;;;;;19.54;55.20;99706.53;4937733;29;20543;-87
2022/03/16 18:47:54;;;;;;;10.40;5.05;;;;;;;19.54;55.33;99707.41;4964774;28;20027;-88
2022/03/16 18:50:22;;;;;;;11.73;4.25;;;;;;;19.55;55.17;99710.88;4984339;28;20455;-88
2022/03/16 18:52:52;;;;;;;11.65;4.78;;;;;;;19.56;55.14;99713.47;4961550;29;20034;-87
2022/03/16 18:55:17;;;;;;;11.15;4.40;;;;;;;19.57;55.26;99719.63;4946805;29;20019;-87
2022/03/16 18:57:43;;;;;;;14.13;4.78;;;;;;;19.57;54.99;99715.19;4948845;29;20027;-88
2022/03/16 19:00:09;;;;;;;9.18;4.25;;;;;;;19.58;54.99;99716.03;4945653;29;20027;-87
2022/03/16 19:02:38;;;;;;;9.43;4.15;;;;;;;19.58;55.25;99719.53;4954684;29;20114;-88
2022/03/16 19:05:04;;;;;;;12.07;4.32;;;;;;;19.58;55.13;99727.47;4959499;28;20121;-88
2022/03/16 19:07:29;;;;;;;12.80;4.80;;;;;;;19.60;55.46;99730.03;4948823;29;20062;-88
2022/03/16 19:09:55;;;;;;;11.50;4.35;;;;;;;19.59;55.23;99723.91;4936112;29;20071;-88
2022/03/16 19:15:05;;;;;;;8.98;4.25;;;;;;;19.61;55.65;99738.84;4984558;28;20428;-86
2022/03/16 19:17:32;;;;;;;10.35;5.05;;;;;;;19.61;55.58;99742.34;4950459;28;20078;-87
2022/03/16 19:19:58;;;;;;;13.15;4.85;;;;;;;19.61;55.57;99744.16;4948192;29;20094;-90
2022/03/16 19:22:24;;;;;;;12.00;4.78;;;;;;;19.63;55.43;99750.22;4948720;29;20488;-88
2022/03/16 19:24:49;;;;;;;12.68;4.75;;;;;;;19.62;55.63;99751.16;4948811;29;20024;-91
2022/03/16 19:27:15;;;;;;;14.23;5.28;;;;;;;19.63;55.58;99750.22;4948506;29;20070;-90
2022/03/16 19:29:42;;;;;;;13.90;5.38;;;;;;;19.63;55.90;99756.38;4947899;29;20035;-89
2022/03/16 19:32:09;;;;;;;14.55;6.18;;;;;;;19.63;55.87;99751.09;4950148;29;20038;-89
2022/03/16 19:34:36;;;;;;;12.18;5.70;;;;;;;19.64;55.90;99754.56;4949127;29;20027;-91
2022/03/16 19:37:03;;;;;;;15.93;6.22;;;;;;;19.65;55.94;99758.91;4951917;29;20035;-90
2022/03/16 19:39:29;;;;;;;12.82;5.63;;;;;;;19.65;55.55;99764.22;4950454;29;20126;-90
2022/03/16 19:41:55;;;;;;;11.27;6.30;;;;;;;19.65;55.94;99761.56;4949360;29;20449;-90
2022/03/16 19:44:21;;;;;;;17.10;7.93;;;;;;;19.65;56.20;99767.72;4946966;29;20041;-91
2022/03/16 19:46:48;;;;;;;12.38;7.03;;;;;;;19.66;56.00;99777.38;4942794;29;20113;-90
2022/03/16 19:49:14;;;;;;;16.08;6.43;;;;;;;19.67;55.93;99779.09;4942866;29;20082;-90
2022/03/16 19:51:42;;;;;;;14.80;6.57;;;;;;;19.68;56.12;99779.97;4943338;29;20034;-90
2022/03/16 19:54:09;;;;;;;15.85;6.53;;;;;;;19.67;56.28;99787.03;4943509;29;20109;-89
2022/03/16 19:56:38;;;;;;;13.13;6.80;;;;;;;19.69;55.84;99793.13;4943853;29;20029;-89
2022/03/16 19:59:05;;;;;;;13.65;6.65;;;;;;;19.71;56.30;99801.00;4944197;29;20063;-89
2022/03/16 20:01:31;;;;;;;13.05;6.38;;;;;;;19.71;56.08;99801.00;4961844;29;20031;-90
2022/03/16 20:04:02;;;;;;;14.82;6.80;;;;;;;19.70;56.14;99799.25;4945685;29;20124;-91
2022/03/16 20:06:28;;;;;;;17.88;7.40;;;;;;;19.70;56.48;99807.22;4945368;29;20027;-88
2022/03/16 20:08:56;;;;;;;15.07;7.03;;;;;;;19.71;56.24;99811.59;4946829;29;20428;-89
2022/03/16 20:11:22;;;;;;;12.00;6.55;;;;;;;19.70;56.41;99809.84;4945872;29;20059;-90
2022/03/16 20:13:50;;;;;;;12.38;6.45;;;;;;;19.71;56.10;99806.28;4946438;29;20097;-91
2022/03/16 20:16:16;;;;;;;14.05;6.07;;;;;;;19.71;56.19;99803.66;4946315;29;20034;-90
2022/03/16 20:18:42;;;;;;;13.55;6.45;;;;;;;19.71;55.65;99806.28;4946388;29;20027;-92
2022/03/16 20:21:08;;;;;;;17.02;7.57;;;;;;;19.71;55.88;99808.94;4945757;29;20078;-90
2022/03/16 20:23:34;;;;;;;16.10;6.75;;;;;;;19.72;56.01;99814.13;4946355;29;20034;-91
2022/03/16 20:26:00;;;;;;;15.18;6.93;;;;;;;19.72;56.10;99808.84;4951489;29;20050;-91
2022/03/16 20:28:25;;;;;;;13.65;6.80;;;;;;;19.72;55.69;99822.09;4948923;29;20027;-91
2022/03/16 20:30:53;;;;;;;14.63;7.18;;;;;;;19.73;55.86;99815.00;4949574;29;20023;-94
2022/03/16 20:33:22;;;;;;;16.77;6.68;;;;;;;19.73;56.50;99820.31;4949240;29;20035;-90
2022/03/16 20:35:48;;;;;;;14.77;7.22;;;;;;;19.75;56.90;99828.19;4947433;29;20038;-91
2022/03/16 20:38:14;;;;;;;15.13;6.60;;;;;;;19.75;56.70;99826.38;4949011;29;20059;-91
2022/03/16 20:40:41;;;;;;;16.33;6.80;;;;;;;19.76;57.04;99827.25;4949809;29;20062;-93
2022/03/16 20:43:08;;;;;;;13.90;6.40;;;;;;;19.75;56.57;99829.00;4941885;29;20042;-95
2022/03/16 20:45:40;;;;;;;16.48;6.65;;;;;;;19.75;56.82;99829.00;4957948;29;20063;-92
2022/03/16 20:48:07;;;;;;;16.33;7.45;;;;;;;19.77;56.72;99827.16;4953796;29;20368;-92
2022/03/16 20:50:33;;;;;;;13.82;6.38;;;;;;;19.77;56.13;99834.25;4951927;29;20059;-92
2022/03/16 20:52:59;;;;;;;17.33;7.53;;;;;;;19.76;56.96;99841.31;4952566;29;20042;-93
2022/03/16 20:55:25;;;;;;;15.95;7.03;;;;;;;19.76;56.80;99836.03;4954608;29;20023;-91
2022/03/16 20:57:51;;;;;;;16.00;6.35;;;;;;;19.77;56.63;99837.75;4952501;29;20062;-91
2022/03/16 21:03:02;;;;;;;14.60;6.40;;;;;;;19.77;56.48;99843.06;4961738;28;20089;-89
2022/03/16 21:05:32;;;;;;;13.13;5.75;;;;;;;19.77;56.29;99847.47;4944906;29;20377;-91
2022/03/16 21:07:58;;;;;;;13.25;5.72;;;;;;;19.77;56.26;99843.06;4948219;29;20342;-91
2022/03/16 21:10:27;;;;;;;16.08;6.43;;;;;;;19.78;56.55;99855.34;4946924;29;20106;-90
2022/03/16 21:12:57;;;;;;;17.23;6.38;;;;;;;19.77;56.50;99848.34;4950806;29;20034;-92
2022/03/16 21:15:22;;;;;;;12.50;5.93;;;;;;;19.78;56.37;99860.66;4939133;29;20138;-91
2022/03/16 21:17:51;;;;;;;18.02;6.72;;;;;;;19.79;56.12;99857.06;4951318;29;20062;-95
2022/03/16 21:20:17;;;;;;;17.67;6.65;;;;;;;19.78;56.37;99863.31;4952664;29;20043;-91
2022/03/16 21:22:43;;;;;;;16.08;6.55;;;;;;;19.78;56.24;99865.06;4951924;29;20027;-94
2022/03/16 21:25:14;;;;;;;12.80;5.65;;;;;;;19.77;56.36;99871.31;4965338;29;20370;-91
2022/03/16 21:27:40;;;;;;;14.23;6.20;;;;;;;19.78;56.34;99881.84;4930778;29;20027;-91
2022/03/16 21:30:09;;;;;;;12.43;5.45;;;;;;;19.77;56.31;99877.47;4944868;29;20019;-88
2022/03/16 21:32:46;;;;;;;12.60;5.47;;;;;;;19.79;56.14;99883.53;4946491;29;20023;-90
2022/03/16 21:35:12;;;;;;;12.75;5.72;;;;;;;19.78;56.30;99892.44;4945556;29;20035;-92
2022/03/16 21:37:42;;;;;;;12.25;5.88;;;;;;;19.78;56.45;99886.25;4967703;29;20054;-88
2022/03/16 21:42:57;;;;;;;13.25;5.63;;;;;;;19.78;56.18;99880.97;4965382;29;20038;-88
2022/03/16 21:48:03;;;;;;;11.52;5.53;;;;;;;19.78;56.20;99887.13;4947201;29;20031;-87
2022/03/16 21:50:37;;;;;;;16.27;5.70;;;;;;;19.79;56.01;99893.28;4947586;29;20023;-90
2022/03/16 21:53:06;;;;;;;13.25;5.15;;;;;;;19.77;56.19;99898.66;4947196;29;20023;-90
2022/03/16 21:55:32;;;;;;;15.40;5.50;;;;;;;19.77;56.29;99896.00;4947818;29;20031;-89
2022/03/16 21:57:58;;;;;;;14.43;5.22;;;;;;;19.78;56.13;99902.16;4947419;29;20023;-88
2022/03/16 22:00:36;;;;;;;12.15;5.03;;;;;;;19.78;56.33;99897.72;4947776;29;20122;-90
2022/03/16 22:03:07;;;;;;;12.32;5.00;;;;;;;19.78;56.11;99897.72;4945844;29;20392;-90
2022/03/16 22:05:35;;;;;;;10.25;4.75;;;;;;;19.76;56.28;99899.56;4945953;29;20046;-90
2022/03/16 22:08:03;;;;;;;11.52;4.82;;;;;;;19.77;56.28;99906.59;4948870;29;20042;-89
2022/03/16 22:10:32;;;;;;;14.13;5.22;;;;;;;19.78;56.01;99905.66;4947323;29;20047;-90
2022/03/16 22:13:02;;;;;;;13.25;5.60;;;;;;;19.77;56.21;99901.31;4949570;29;20357;-88
2022/03/16 22:15:33;;;;;;;13.23;5.00;;;;;;;19.77;56.33;99911.91;4932863;29;20047;-90
2022/03/16 22:17:59;;;;;;;13.52;4.85;;;;;;;19.78;56.08;99908.31;4944288;29;20031;-89